createdAt,value
2019-05-17T00:00:47.603Z,0.00
2019-05-17T00:01:47.530Z,0.00
2019-05-17T00:02:47.511Z,0.00
2019-05-17T00:03:47.507Z,0.00
2019-05-17T00:04:47.488Z,0.00
2019-05-17T00:05:47.476Z,0.00
2019-05-17T00:06:47.757Z,0.00
2019-05-17T00:07:47.725Z,0.00
2019-05-17T00:08:47.459Z,0.00
2019-05-17T00:09:47.860Z,0.00
2019-05-17T00:10:47.418Z,0.00
2019-05-17T00:11:47.496Z,0.00
2019-05-17T00:12:47.421Z,0.00
2019-05-17T00:13:47.412Z,0.00
2019-05-17T00:14:47.431Z,0.00
2019-05-17T00:15:47.540Z,0.00
2019-05-17T00:16:47.367Z,0.00
2019-05-17T00:17:47.339Z,0.00
2019-05-17T00:18:47.329Z,0.00
2019-05-17T00:19:47.329Z,0.00
2019-05-17T00:20:47.346Z,0.00
2019-05-17T00:21:47.622Z,0.00
2019-05-17T00:22:47.412Z,0.00
2019-05-17T00:23:47.276Z,0.00
2019-05-17T00:24:47.769Z,0.00
2019-05-17T00:25:47.258Z,0.00
2019-05-17T00:26:47.248Z,0.00
2019-05-17T00:27:47.597Z,0.00
2019-05-17T00:28:47.235Z,0.00
2019-05-17T00:29:47.218Z,0.00
2019-05-17T00:30:47.211Z,0.00
2019-05-17T00:31:47.188Z,0.00
2019-05-17T00:32:47.672Z,0.00
2019-05-17T00:33:47.278Z,0.00
2019-05-17T00:34:47.175Z,0.00
2019-05-17T00:35:47.147Z,0.00
2019-05-17T00:36:47.158Z,0.00
2019-05-17T00:37:47.147Z,0.00
2019-05-17T00:38:51.269Z,0.00
2019-05-17T00:39:47.307Z,0.00
2019-05-17T00:40:47.206Z,0.00
2019-05-17T00:41:48.077Z,0.00
2019-05-17T00:42:47.067Z,0.00
2019-05-17T00:43:47.067Z,0.00
2019-05-17T00:44:47.490Z,0.00
2019-05-17T00:45:47.050Z,0.00
2019-05-17T00:46:47.029Z,0.00
2019-05-17T00:47:47.048Z,0.00
2019-05-17T00:48:47.007Z,0.00
2019-05-17T00:49:47.010Z,0.00
2019-05-17T00:50:53.601Z,0.00
2019-05-17T00:51:47.977Z,0.00
2019-05-17T00:52:47.434Z,0.00
2019-05-17T00:53:46.977Z,0.00
2019-05-17T00:54:47.059Z,0.00
2019-05-17T00:55:46.927Z,0.00
2019-05-17T00:56:46.917Z,0.00
2019-05-17T00:57:47.434Z,0.00
2019-05-17T00:58:47.763Z,0.00
2019-05-17T00:59:47.548Z,0.00
2019-05-17T01:00:47.922Z,0.00
2019-05-17T01:01:47.034Z,0.00
2019-05-17T01:02:47.043Z,0.00
2019-05-17T01:03:47.691Z,0.00
2019-05-17T01:04:47.644Z,0.00
2019-05-17T01:05:47.322Z,0.00
2019-05-17T01:06:47.022Z,0.00
2019-05-17T01:07:47.253Z,0.00
2019-05-17T01:08:59.402Z,0.00
2019-05-17T01:09:47.784Z,0.00
2019-05-17T01:10:47.352Z,0.00
2019-05-17T01:11:47.441Z,0.00
2019-05-17T01:12:48.180Z,0.00
2019-05-17T01:13:46.802Z,0.00
2019-05-17T01:14:46.786Z,0.00
2019-05-17T01:15:47.391Z,0.00
2019-05-17T01:16:47.514Z,0.00
2019-05-17T01:17:47.362Z,0.00
2019-05-17T01:18:47.085Z,0.00
2019-05-17T01:19:47.177Z,0.00
2019-05-17T01:20:47.454Z,0.00
2019-05-17T01:21:47.427Z,0.00
2019-05-17T01:22:47.507Z,0.00
2019-05-17T01:23:46.803Z,0.00
2019-05-17T01:24:46.628Z,0.00
2019-05-17T01:25:48.142Z,0.00
2019-05-17T01:26:46.950Z,0.00
2019-05-17T01:27:47.548Z,0.00
2019-05-17T01:28:46.791Z,0.00
2019-05-17T01:29:46.668Z,0.00
2019-05-17T01:30:46.568Z,0.00
2019-05-17T01:31:46.666Z,0.00
2019-05-17T01:32:46.735Z,0.00
2019-05-17T01:33:47.034Z,0.00
2019-05-17T01:34:47.004Z,0.00
2019-05-17T01:35:46.699Z,0.00
2019-05-17T01:36:46.626Z,0.00
2019-05-17T01:37:47.423Z,0.00
2019-05-17T01:38:46.915Z,0.00
2019-05-17T01:39:46.875Z,0.00
2019-05-17T01:40:46.464Z,0.00
2019-05-17T01:41:46.921Z,0.00
2019-05-17T01:42:46.694Z,0.00
2019-05-17T01:43:47.410Z,0.00
2019-05-17T01:44:47.192Z,0.00
2019-05-17T01:45:48.068Z,0.00
2019-05-17T01:46:46.613Z,0.00
2019-05-17T01:47:47.505Z,0.00
2019-05-17T01:48:47.112Z,0.00
2019-05-17T01:49:46.955Z,0.00
2019-05-17T01:50:46.522Z,0.00
2019-05-17T01:51:46.629Z,0.00
2019-05-17T01:52:46.400Z,0.00
2019-05-17T01:53:47.012Z,0.00
2019-05-17T01:54:46.969Z,0.00
2019-05-17T01:55:46.680Z,0.00
2019-05-17T01:56:46.328Z,0.00
2019-05-17T01:57:47.670Z,0.00
2019-05-17T01:58:47.001Z,0.00
2019-05-17T01:59:46.729Z,0.00
2019-05-17T02:00:46.605Z,0.00
2019-05-17T02:01:47.338Z,0.00
2019-05-17T02:02:47.133Z,0.00
2019-05-17T02:03:46.908Z,0.00
2019-05-17T02:04:46.746Z,0.00
2019-05-17T02:05:47.357Z,0.00
2019-05-17T02:06:46.727Z,0.00
2019-05-17T02:07:46.715Z,0.00
2019-05-17T02:08:47.478Z,0.00
2019-05-17T02:09:47.717Z,0.00
2019-05-17T02:10:46.598Z,0.00
2019-05-17T02:11:46.688Z,0.00
2019-05-17T02:12:49.084Z,0.00
2019-05-17T02:13:46.722Z,0.00
2019-05-17T02:14:46.786Z,0.00
2019-05-17T02:15:46.998Z,0.00
2019-05-17T02:16:46.749Z,0.00
2019-05-17T02:17:46.837Z,0.00
2019-05-17T02:18:46.571Z,0.00
2019-05-17T02:19:46.579Z,0.00
2019-05-17T02:20:46.485Z,0.00
2019-05-17T02:21:47.940Z,0.00
2019-05-17T02:22:47.280Z,0.00
2019-05-17T02:23:46.931Z,0.00
2019-05-17T02:24:46.405Z,0.00
2019-05-17T02:25:47.198Z,0.00
2019-05-17T02:26:46.573Z,0.00
2019-05-17T02:27:45.937Z,0.00
2019-05-17T02:28:45.935Z,0.00
2019-05-17T02:29:45.915Z,0.00
2019-05-17T02:30:45.906Z,0.00
2019-05-17T02:31:45.928Z,0.00
2019-05-17T02:32:45.907Z,0.00
2019-05-17T02:33:45.896Z,0.00
2019-05-17T02:34:45.860Z,0.00
2019-05-17T02:35:45.879Z,0.00
2019-05-17T02:36:45.836Z,0.00
2019-05-17T02:37:45.837Z,0.00
2019-05-17T02:38:45.832Z,0.00
2019-05-17T02:39:58.017Z,0.00
2019-05-17T02:40:46.805Z,0.00
2019-05-17T02:41:45.805Z,0.00
2019-05-17T02:42:45.814Z,0.00
2019-05-17T02:43:45.776Z,0.00
2019-05-17T02:44:45.793Z,0.00
2019-05-17T02:45:45.746Z,0.00
2019-05-17T02:46:45.766Z,0.00
2019-05-17T02:47:45.726Z,0.00
2019-05-17T02:48:45.715Z,0.00
2019-05-17T02:49:45.715Z,0.00
2019-05-17T02:50:48.172Z,0.00
2019-05-17T02:51:45.677Z,0.00
2019-05-17T02:52:45.689Z,0.00
2019-05-17T02:53:45.666Z,0.00
2019-05-17T02:54:45.673Z,0.00
2019-05-17T02:55:45.643Z,0.00
2019-05-17T02:56:45.625Z,0.00
2019-05-17T02:57:45.625Z,0.00
2019-05-17T02:58:45.624Z,0.00
2019-05-17T02:59:45.598Z,4.00
2019-05-17T03:00:45.623Z,4.00
2019-05-17T03:01:45.602Z,4.00
2019-05-17T03:02:45.584Z,0.00
2019-05-17T03:03:45.561Z,0.00
2019-05-17T03:04:45.545Z,4.00
2019-05-17T03:05:45.537Z,4.00
2019-05-17T03:06:45.526Z,8.00
2019-05-17T03:07:45.520Z,8.00
2019-05-17T03:08:45.506Z,8.00
2019-05-17T03:09:45.486Z,8.00
2019-05-17T03:10:45.497Z,8.00
2019-05-17T03:11:45.465Z,16.00
2019-05-17T03:12:45.476Z,16.00
2019-05-17T03:13:45.444Z,16.00
2019-05-17T03:14:45.452Z,20.00
2019-05-17T03:15:45.442Z,24.00
2019-05-17T03:16:45.409Z,28.00
2019-05-17T03:17:45.414Z,32.00
2019-05-17T03:18:45.440Z,36.00
2019-05-17T03:19:45.385Z,40.00
2019-05-17T03:20:45.377Z,44.00
2019-05-17T03:21:45.364Z,52.00
2019-05-17T03:22:45.368Z,56.00
2019-05-17T03:23:45.362Z,60.00
2019-05-17T03:24:45.334Z,68.00
2019-05-17T03:25:45.326Z,76.00
2019-05-17T03:26:45.315Z,84.00
2019-05-17T03:27:45.301Z,92.00
2019-05-17T03:28:45.287Z,104.00
2019-05-17T03:29:45.276Z,120.00
2019-05-17T03:30:46.868Z,132.00
2019-05-17T03:31:53.388Z,144.00
2019-05-17T03:32:48.053Z,160.00
2019-05-17T03:33:46.230Z,176.00
2019-05-17T03:34:45.288Z,192.00
2019-05-17T03:35:46.234Z,208.00
2019-05-17T03:36:46.805Z,224.00
2019-05-17T03:37:45.201Z,244.00
2019-05-17T03:38:45.180Z,260.00
2019-05-17T03:39:45.193Z,280.00
2019-05-17T03:41:07.541Z,308.00
2019-05-17T03:41:46.143Z,328.00
2019-05-17T03:42:45.181Z,348.00
2019-05-17T03:43:45.157Z,380.00
2019-05-17T03:44:45.139Z,408.00
2019-05-17T03:45:45.136Z,428.00
2019-05-17T03:46:45.095Z,436.00
2019-05-17T03:47:45.096Z,448.00
2019-05-17T03:48:45.074Z,460.00
2019-05-17T03:49:45.054Z,480.00
2019-05-17T03:50:45.054Z,496.00
2019-05-17T03:51:45.065Z,504.00
2019-05-17T03:52:45.116Z,512.00
2019-05-17T03:53:45.014Z,536.00
2019-05-17T03:54:45.016Z,572.00
2019-05-17T03:55:45.015Z,600.00
2019-05-17T03:56:44.984Z,608.00
2019-05-17T03:57:44.991Z,628.00
2019-05-17T03:58:44.955Z,640.00
2019-05-17T03:59:44.946Z,640.00
2019-05-17T04:00:44.948Z,636.00
2019-05-17T04:01:44.957Z,628.00
2019-05-17T04:02:45.075Z,632.00
2019-05-17T04:03:44.916Z,684.00
2019-05-17T04:04:44.913Z,744.00
2019-05-17T04:05:44.884Z,760.00
2019-05-17T04:06:44.895Z,796.00
2019-05-17T04:07:44.901Z,896.00
2019-05-17T04:08:44.855Z,1020.00
2019-05-17T04:09:44.856Z,1120.00
2019-05-17T04:10:44.857Z,1176.00
2019-05-17T04:11:44.857Z,1212.00
2019-05-17T04:12:44.829Z,1212.00
2019-05-17T04:13:44.793Z,1244.00
2019-05-17T04:14:44.811Z,1372.00
2019-05-17T04:15:44.845Z,1452.00
2019-05-17T04:16:44.785Z,1504.00
2019-05-17T04:17:44.856Z,1624.00
2019-05-17T04:18:44.750Z,1704.00
2019-05-17T04:19:44.759Z,1708.00
2019-05-17T04:20:44.724Z,1664.00
2019-05-17T04:21:44.742Z,1652.00
2019-05-17T04:22:44.905Z,1652.00
2019-05-17T04:23:44.705Z,1672.00
2019-05-17T04:24:44.685Z,1688.00
2019-05-17T04:25:44.675Z,1684.00
2019-05-17T04:26:44.702Z,1668.00
2019-05-17T04:27:44.677Z,1656.00
2019-05-17T04:28:44.643Z,1664.00
2019-05-17T04:29:44.641Z,1696.00
2019-05-17T04:30:44.634Z,1748.00
2019-05-17T04:31:44.628Z,1848.00
2019-05-17T04:32:44.777Z,1924.00
2019-05-17T04:33:44.584Z,2016.00
2019-05-17T04:34:44.590Z,2092.00
2019-05-17T04:35:44.587Z,2108.00
2019-05-17T04:36:44.566Z,2236.00
2019-05-17T04:37:45.235Z,2276.00
2019-05-17T04:38:44.552Z,2356.00
2019-05-17T04:39:44.559Z,2364.00
2019-05-17T04:40:44.502Z,2368.00
2019-05-17T04:41:49.270Z,2428.00
2019-05-17T04:42:45.502Z,2536.00
2019-05-17T04:43:44.474Z,2660.00
2019-05-17T04:44:44.465Z,2748.00
2019-05-17T04:45:44.467Z,2788.00
2019-05-17T04:46:44.467Z,2812.00
2019-05-17T04:47:44.924Z,2844.00
2019-05-17T04:48:44.447Z,2896.00
2019-05-17T04:49:44.425Z,2948.00
2019-05-17T04:50:44.417Z,3016.00
2019-05-17T04:51:44.422Z,3068.00
2019-05-17T04:52:44.386Z,3096.00
2019-05-17T04:53:44.364Z,3208.00
2019-05-17T04:54:44.369Z,3404.00
2019-05-17T04:55:44.367Z,3600.00
2019-05-17T04:56:44.334Z,3696.00
2019-05-17T04:57:44.530Z,3780.00
2019-05-17T04:58:44.332Z,3872.00
2019-05-17T04:59:44.305Z,4056.00
2019-05-17T05:00:44.367Z,4252.00
2019-05-17T05:01:44.282Z,4380.00
2019-05-17T05:02:44.459Z,4460.00
2019-05-17T05:03:44.262Z,4488.00
2019-05-17T05:04:44.268Z,4456.00
2019-05-17T05:05:44.256Z,4520.00
2019-05-17T05:06:44.245Z,4556.00
2019-05-17T05:07:44.230Z,4332.00
2019-05-17T05:08:44.202Z,4112.00
2019-05-17T05:09:44.207Z,3640.00
2019-05-17T05:10:44.194Z,3336.00
2019-05-17T05:11:59.633Z,3088.00
2019-05-17T05:12:45.192Z,2984.00
2019-05-17T05:13:44.156Z,3064.00
2019-05-17T05:14:44.141Z,2996.00
2019-05-17T05:15:44.774Z,3004.00
2019-05-17T05:16:44.132Z,2716.00
2019-05-17T05:17:44.121Z,2648.00
2019-05-17T05:18:44.109Z,2672.00
2019-05-17T05:19:44.115Z,2912.00
2019-05-17T05:20:44.135Z,3184.00
2019-05-17T05:21:44.088Z,2972.00
2019-05-17T05:22:44.065Z,2884.00
2019-05-17T05:23:44.050Z,2832.00
2019-05-17T05:24:44.041Z,2764.00
2019-05-17T05:25:44.030Z,2676.00
2019-05-17T05:26:44.032Z,2624.00
2019-05-17T05:27:44.014Z,2612.00
2019-05-17T05:28:44.010Z,2620.00
2019-05-17T05:29:43.980Z,2680.00
2019-05-17T05:30:43.976Z,2720.00
2019-05-17T05:31:43.965Z,2672.00
2019-05-17T05:32:43.983Z,2624.00
2019-05-17T05:33:43.933Z,2664.00
2019-05-17T05:34:46.433Z,2528.00
2019-05-17T05:35:43.939Z,2416.00
2019-05-17T05:36:43.930Z,2488.00
2019-05-17T05:37:43.892Z,2840.00
2019-05-17T05:38:43.891Z,3092.00
2019-05-17T05:39:43.885Z,3384.00
2019-05-17T05:40:43.861Z,3664.00
2019-05-17T05:41:43.871Z,3700.00
2019-05-17T05:42:43.852Z,3988.00
2019-05-17T05:43:43.829Z,4128.00
2019-05-17T05:44:43.829Z,4264.00
2019-05-17T05:45:43.809Z,4572.00
2019-05-17T05:46:43.801Z,4700.00
2019-05-17T05:47:43.802Z,4740.00
2019-05-17T05:48:43.782Z,4880.00
2019-05-17T05:49:43.778Z,5076.00
2019-05-17T05:50:43.753Z,5232.00
2019-05-17T05:51:43.763Z,5336.00
2019-05-17T05:52:43.732Z,5540.00
2019-05-17T05:53:43.725Z,5432.00
2019-05-17T05:54:43.709Z,5732.00
2019-05-17T05:55:43.721Z,5900.00
2019-05-17T05:56:43.699Z,5776.00
2019-05-17T05:57:43.682Z,5452.00
2019-05-17T05:58:43.659Z,5492.00
2019-05-17T05:59:43.649Z,5548.00
2019-05-17T06:00:43.644Z,5784.00
2019-05-17T06:01:43.648Z,5604.00
2019-05-17T06:02:43.620Z,5400.00
2019-05-17T06:03:43.608Z,5240.00
2019-05-17T06:04:43.599Z,5144.00
2019-05-17T06:05:43.587Z,4920.00
2019-05-17T06:06:43.598Z,4412.00
2019-05-17T06:07:43.573Z,4272.00
2019-05-17T06:08:43.563Z,4940.00
2019-05-17T06:09:43.543Z,5048.00
2019-05-17T06:10:43.538Z,5024.00
2019-05-17T06:11:43.529Z,5844.00
2019-05-17T06:12:43.806Z,6820.00
2019-05-17T06:13:43.499Z,7132.00
2019-05-17T06:14:43.489Z,6884.00
2019-05-17T06:15:43.487Z,6724.00
2019-05-17T06:16:43.489Z,6216.00
2019-05-17T06:17:43.468Z,5584.00
2019-05-17T06:18:43.449Z,4676.00
2019-05-17T06:19:43.447Z,3976.00
2019-05-17T06:20:43.442Z,3560.00
2019-05-17T06:21:43.450Z,3396.00
2019-05-17T06:22:43.403Z,3340.00
2019-05-17T06:23:43.397Z,3348.00
2019-05-17T06:24:43.387Z,3316.00
2019-05-17T06:25:43.877Z,3208.00
2019-05-17T06:26:43.381Z,3156.00
2019-05-17T06:27:43.363Z,3128.00
2019-05-17T06:28:43.340Z,3144.00
2019-05-17T06:29:43.329Z,3172.00
2019-05-17T06:30:43.418Z,3220.00
2019-05-17T06:31:43.532Z,3228.00
2019-05-17T06:32:43.699Z,3236.00
2019-05-17T06:33:43.286Z,3384.00
2019-05-17T06:34:43.268Z,3580.00
2019-05-17T06:35:43.267Z,4260.00
2019-05-17T06:36:43.247Z,4964.00
2019-05-17T06:37:43.277Z,5296.00
2019-05-17T06:38:43.229Z,5364.00
2019-05-17T06:39:43.227Z,5480.00
2019-05-17T06:40:43.212Z,5016.00
2019-05-17T06:41:43.197Z,5152.00
2019-05-17T06:42:45.493Z,5628.00
2019-05-17T06:43:43.189Z,6228.00
2019-05-17T06:44:43.167Z,6440.00
2019-05-17T06:45:43.168Z,6252.00
2019-05-17T06:46:43.160Z,6008.00
2019-05-17T06:47:43.156Z,5956.00
2019-05-17T06:48:43.137Z,5912.00
2019-05-17T06:49:43.121Z,5692.00
2019-05-17T06:50:43.387Z,5572.00
2019-05-17T06:51:43.106Z,5524.00
2019-05-17T06:52:43.769Z,5384.00
2019-05-17T06:53:43.647Z,5228.00
2019-05-17T06:54:43.071Z,5108.00
2019-05-17T06:55:43.048Z,5016.00
2019-05-17T06:56:43.047Z,4996.00
2019-05-17T06:57:43.560Z,4932.00
2019-05-17T06:58:43.027Z,4848.00
2019-05-17T06:59:43.009Z,4832.00
2019-05-17T07:00:42.987Z,4924.00
2019-05-17T07:01:42.986Z,4948.00
2019-05-17T07:02:42.978Z,4876.00
2019-05-17T07:03:42.977Z,4836.00
2019-05-17T07:04:42.967Z,4988.00
2019-05-17T07:05:42.950Z,5144.00
2019-05-17T07:06:42.952Z,5096.00
2019-05-17T07:07:42.924Z,5008.00
2019-05-17T07:08:42.936Z,5068.00
2019-05-17T07:09:42.896Z,5300.00
2019-05-17T07:11:03.900Z,5448.00
2019-05-17T07:11:42.880Z,5288.00
2019-05-17T07:12:54.886Z,5116.00
2019-05-17T07:13:43.870Z,5200.00
2019-05-17T07:14:42.849Z,5492.00
2019-05-17T07:15:47.353Z,5720.00
2019-05-17T07:16:43.828Z,5680.00
2019-05-17T07:17:42.822Z,5532.00
2019-05-17T07:18:42.805Z,5444.00
2019-05-17T07:19:42.795Z,5516.00
2019-05-17T07:20:42.776Z,5868.00
2019-05-17T07:21:42.774Z,5932.00
2019-05-17T07:22:42.756Z,5700.00
2019-05-17T07:23:42.755Z,5760.00
2019-05-17T07:24:42.768Z,5996.00
2019-05-17T07:25:42.724Z,5832.00
2019-05-17T07:26:42.715Z,5736.00
2019-05-17T07:27:45.887Z,5904.00
2019-05-17T07:28:42.704Z,6180.00
2019-05-17T07:29:42.682Z,6276.00
2019-05-17T07:30:42.684Z,6344.00
2019-05-17T07:31:42.655Z,6832.00
2019-05-17T07:32:42.645Z,7292.00
2019-05-17T07:33:42.657Z,7428.00
2019-05-17T07:34:42.635Z,7492.00
2019-05-17T07:35:42.625Z,7016.00
2019-05-17T07:36:42.605Z,6500.00
2019-05-17T07:37:42.594Z,6136.00
2019-05-17T07:38:42.595Z,6236.00
2019-05-17T07:39:42.583Z,6500.00
2019-05-17T07:40:42.575Z,6920.00
2019-05-17T07:41:42.554Z,7420.00
2019-05-17T07:42:42.549Z,8012.00
2019-05-17T07:43:42.545Z,8976.00
2019-05-17T07:44:44.093Z,10052.00
2019-05-17T07:45:42.524Z,11148.00
2019-05-17T07:46:42.495Z,11664.00
2019-05-17T07:47:42.486Z,11960.00
2019-05-17T07:48:42.474Z,11416.00
2019-05-17T07:49:42.470Z,10384.00
2019-05-17T07:50:42.463Z,9336.00
2019-05-17T07:51:42.444Z,7892.00
2019-05-17T07:52:42.464Z,6836.00
2019-05-17T07:53:42.422Z,5556.00
2019-05-17T07:54:42.427Z,4808.00
2019-05-17T07:55:42.414Z,4764.00
2019-05-17T07:56:42.394Z,6200.00
2019-05-17T07:57:42.550Z,8984.00
2019-05-17T07:58:42.503Z,11348.00
2019-05-17T07:59:42.364Z,11984.00
2019-05-17T08:00:51.167Z,11704.00
2019-05-17T08:01:42.342Z,11720.00
2019-05-17T08:02:42.338Z,11644.00
2019-05-17T08:03:42.344Z,10984.00
2019-05-17T08:04:42.330Z,10768.00
2019-05-17T08:05:42.302Z,11304.00
2019-05-17T08:06:42.275Z,11044.00
2019-05-17T08:07:42.284Z,10836.00
2019-05-17T08:08:42.278Z,10864.00
2019-05-17T08:09:42.273Z,10260.00
2019-05-17T08:10:42.239Z,9356.00
2019-05-17T08:11:42.224Z,7876.00
2019-05-17T08:12:42.235Z,6848.00
2019-05-17T08:13:42.212Z,6512.00
2019-05-17T08:14:42.247Z,7176.00
2019-05-17T08:15:42.197Z,8568.00
2019-05-17T08:16:42.208Z,8580.00
2019-05-17T08:17:42.162Z,8228.00
2019-05-17T08:18:42.160Z,8636.00
2019-05-17T08:19:42.148Z,8900.00
2019-05-17T08:20:42.137Z,8780.00
2019-05-17T08:21:42.114Z,8056.00
2019-05-17T08:22:42.114Z,8068.00
2019-05-17T08:23:42.106Z,7740.00
2019-05-17T08:24:42.094Z,6968.00
2019-05-17T08:25:52.776Z,7164.00
2019-05-17T08:26:43.064Z,6412.00
2019-05-17T08:27:42.055Z,5764.00
2019-05-17T08:28:42.049Z,5712.00
2019-05-17T08:29:42.042Z,5028.00
2019-05-17T08:30:42.054Z,4536.00
2019-05-17T08:31:42.004Z,4084.00
2019-05-17T08:32:42.011Z,4044.00
2019-05-17T08:33:42.009Z,4308.00
2019-05-17T08:34:41.986Z,4620.00
2019-05-17T08:35:41.965Z,4460.00
2019-05-17T08:36:41.964Z,4292.00
2019-05-17T08:37:42.676Z,4984.00
2019-05-17T08:38:41.935Z,5172.00
2019-05-17T08:39:42.073Z,5004.00
2019-05-17T08:40:41.916Z,5788.00
2019-05-17T08:41:41.913Z,5604.00
2019-05-17T08:42:41.899Z,4384.00
2019-05-17T08:43:46.493Z,3820.00
2019-05-17T08:44:42.863Z,3888.00
2019-05-17T08:45:41.858Z,4092.00
2019-05-17T08:46:41.868Z,4672.00
2019-05-17T08:47:41.845Z,5360.00
2019-05-17T08:48:41.824Z,5348.00
2019-05-17T08:49:41.974Z,4716.00
2019-05-17T08:50:56.514Z,4308.00
2019-05-17T08:51:41.793Z,4632.00
2019-05-17T08:52:41.795Z,5740.00
2019-05-17T08:53:41.775Z,5892.00
2019-05-17T08:54:42.947Z,5488.00
2019-05-17T08:55:41.764Z,5056.00
2019-05-17T08:56:41.761Z,4688.00
2019-05-17T08:57:41.733Z,4348.00
2019-05-17T08:58:41.731Z,4228.00
2019-05-17T08:59:41.725Z,4316.00
2019-05-17T09:00:42.297Z,4320.00
2019-05-17T09:01:42.897Z,4132.00
2019-05-17T09:02:41.715Z,3840.00
2019-05-17T09:03:41.690Z,3372.00
2019-05-17T09:04:41.654Z,3120.00
2019-05-17T09:05:42.071Z,2932.00
2019-05-17T09:06:41.635Z,3424.00
2019-05-17T09:07:41.636Z,4188.00
2019-05-17T09:08:41.643Z,4292.00
2019-05-17T09:09:41.611Z,5340.00
2019-05-17T09:10:41.647Z,6328.00
2019-05-17T09:11:41.576Z,6788.00
2019-05-17T09:12:41.584Z,6800.00
2019-05-17T09:13:54.564Z,6752.00
2019-05-17T09:14:42.554Z,6484.00
2019-05-17T09:15:41.547Z,5932.00
2019-05-17T09:16:41.559Z,5672.00
2019-05-17T09:17:41.518Z,5616.00
2019-05-17T09:18:41.523Z,5540.00
2019-05-17T09:19:41.484Z,5360.00
2019-05-17T09:20:41.495Z,5640.00
2019-05-17T09:21:41.547Z,5952.00
2019-05-17T09:22:41.464Z,5612.00
2019-05-17T09:23:41.743Z,5352.00
2019-05-17T09:24:41.714Z,5284.00
2019-05-17T09:25:41.565Z,5660.00
2019-05-17T09:26:41.476Z,6044.00
2019-05-17T09:27:41.554Z,6116.00
2019-05-17T09:28:41.706Z,6384.00
2019-05-17T09:29:41.494Z,5968.00
2019-05-17T09:30:42.282Z,5976.00
2019-05-17T09:31:41.615Z,6272.00
2019-05-17T09:32:41.362Z,6636.00
2019-05-17T09:33:41.464Z,6816.00
2019-05-17T09:34:41.473Z,7556.00
2019-05-17T09:35:41.660Z,9856.00
2019-05-17T09:36:41.314Z,12456.00
2019-05-17T09:37:41.733Z,14080.00
2019-05-17T09:38:41.298Z,14440.00
2019-05-17T09:39:41.285Z,13992.00
2019-05-17T09:40:41.322Z,12820.00
2019-05-17T09:41:41.343Z,11672.00
2019-05-17T09:42:41.523Z,11572.00
2019-05-17T09:43:41.234Z,11440.00
2019-05-17T09:44:41.280Z,12292.00
2019-05-17T09:45:41.204Z,13252.00
2019-05-17T09:46:41.203Z,13532.00
2019-05-17T09:47:41.184Z,12196.00
2019-05-17T09:48:41.176Z,9216.00
2019-05-17T09:49:41.185Z,7472.00
2019-05-17T09:50:41.167Z,7284.00
2019-05-17T09:51:41.154Z,8244.00
2019-05-17T09:52:41.177Z,9192.00
2019-05-17T09:53:41.135Z,10300.00
2019-05-17T09:54:45.193Z,11784.00
2019-05-17T09:55:41.104Z,12060.00
2019-05-17T09:56:41.084Z,12036.00
2019-05-17T09:57:41.258Z,12780.00
2019-05-17T09:58:41.086Z,13184.00
2019-05-17T09:59:41.064Z,12124.00
2019-05-17T10:00:41.052Z,10740.00
2019-05-17T10:01:41.033Z,8968.00
2019-05-17T10:02:41.059Z,8056.00
2019-05-17T10:03:41.014Z,7960.00
2019-05-17T10:04:41.032Z,8260.00
2019-05-17T10:05:41.014Z,9260.00
2019-05-17T10:06:40.985Z,9744.00
2019-05-17T10:07:40.994Z,9704.00
2019-05-17T10:08:40.985Z,9472.00
2019-05-17T10:09:40.993Z,9312.00
2019-05-17T10:10:41.373Z,9424.00
2019-05-17T10:11:40.966Z,10124.00
2019-05-17T10:12:40.926Z,10952.00
2019-05-17T10:13:40.913Z,11520.00
2019-05-17T10:14:40.897Z,11576.00
2019-05-17T10:15:41.210Z,11640.00
2019-05-17T10:16:40.893Z,11432.00
2019-05-17T10:17:40.877Z,10732.00
2019-05-17T10:18:40.853Z,10436.00
2019-05-17T10:19:40.858Z,9624.00
2019-05-17T10:20:40.838Z,8204.00
2019-05-17T10:21:40.876Z,6108.00
2019-05-17T10:22:40.828Z,5764.00
2019-05-17T10:23:40.877Z,5576.00
2019-05-17T10:24:42.361Z,5492.00
2019-05-17T10:25:40.793Z,5240.00
2019-05-17T10:26:40.963Z,4952.00
2019-05-17T10:27:40.963Z,5276.00
2019-05-17T10:28:40.774Z,5656.00
2019-05-17T10:29:40.745Z,6096.00
2019-05-17T10:30:40.723Z,6728.00
2019-05-17T10:31:40.723Z,7656.00
2019-05-17T10:32:41.214Z,7296.00
2019-05-17T10:33:40.695Z,5800.00
2019-05-17T10:34:40.674Z,5948.00
2019-05-17T10:35:41.000Z,6984.00
2019-05-17T10:36:40.653Z,7664.00
2019-05-17T10:37:41.048Z,8072.00
2019-05-17T10:38:40.644Z,7016.00
2019-05-17T10:39:41.773Z,5944.00
2019-05-17T10:40:41.203Z,5956.00
2019-05-17T10:41:40.851Z,6148.00
2019-05-17T10:42:40.613Z,6980.00
2019-05-17T10:43:44.140Z,7488.00
2019-05-17T10:44:47.013Z,7404.00
2019-05-17T10:45:44.291Z,6860.00
2019-05-17T10:46:40.855Z,5268.00
2019-05-17T10:47:40.566Z,4100.00
2019-05-17T10:48:41.247Z,4024.00
2019-05-17T10:49:40.628Z,4676.00
2019-05-17T10:50:40.966Z,5748.00
2019-05-17T10:51:40.642Z,6308.00
2019-05-17T10:52:41.257Z,6400.00
2019-05-17T10:53:40.627Z,6760.00
2019-05-17T10:54:40.474Z,7284.00
2019-05-17T10:55:40.454Z,8584.00
2019-05-17T10:56:40.545Z,10292.00
2019-05-17T10:57:40.441Z,11304.00
2019-05-17T10:58:40.435Z,11560.00
2019-05-17T10:59:40.426Z,11440.00
2019-05-17T11:00:41.417Z,11336.00
2019-05-17T11:01:40.496Z,11420.00
2019-05-17T11:02:40.384Z,11504.00
2019-05-17T11:03:40.409Z,11680.00
2019-05-17T11:04:40.362Z,11988.00
2019-05-17T11:05:40.533Z,11656.00
2019-05-17T11:06:40.384Z,11524.00
2019-05-17T11:07:40.336Z,11584.00
2019-05-17T11:08:40.334Z,10604.00
2019-05-17T11:09:40.731Z,9272.00
2019-05-17T11:10:40.292Z,8456.00
2019-05-17T11:11:40.299Z,8072.00
2019-05-17T11:12:40.274Z,7756.00
2019-05-17T11:13:40.306Z,7472.00
2019-05-17T11:14:50.723Z,7268.00
2019-05-17T11:15:41.325Z,7680.00
2019-05-17T11:16:40.235Z,8044.00
2019-05-17T11:17:40.225Z,7632.00
2019-05-17T11:18:40.224Z,7172.00
2019-05-17T11:19:40.193Z,7044.00
2019-05-17T11:20:40.189Z,6968.00
2019-05-17T11:21:40.174Z,5984.00
2019-05-17T11:22:40.169Z,4996.00
2019-05-17T11:23:40.169Z,4292.00
2019-05-17T11:24:40.134Z,3584.00
2019-05-17T11:25:45.510Z,3384.00
2019-05-17T11:26:41.113Z,3348.00
2019-05-17T11:27:40.115Z,3444.00
2019-05-17T11:28:40.116Z,3800.00
2019-05-17T11:29:40.103Z,3896.00
2019-05-17T11:30:40.075Z,3956.00
2019-05-17T11:31:40.063Z,4060.00
2019-05-17T11:32:40.081Z,4272.00
2019-05-17T11:33:40.079Z,4336.00
2019-05-17T11:34:40.055Z,4376.00
2019-05-17T11:35:40.050Z,4208.00
2019-05-17T11:36:40.030Z,3900.00
2019-05-17T11:37:40.004Z,4216.00
2019-05-17T11:38:40.015Z,5176.00
2019-05-17T11:39:39.973Z,6160.00
2019-05-17T11:40:40.003Z,6632.00
2019-05-17T11:41:39.963Z,7016.00
2019-05-17T11:42:39.955Z,7580.00
2019-05-17T11:43:39.943Z,7704.00
2019-05-17T11:44:39.923Z,7652.00
2019-05-17T11:45:39.938Z,7584.00
2019-05-17T11:46:39.917Z,7892.00
2019-05-17T11:47:39.891Z,8020.00
2019-05-17T11:48:39.903Z,7712.00
2019-05-17T11:49:39.935Z,7348.00
2019-05-17T11:50:39.865Z,6608.00
2019-05-17T11:51:39.862Z,5748.00
2019-05-17T11:52:39.843Z,5168.00
2019-05-17T11:53:39.853Z,5292.00
2019-05-17T11:54:39.824Z,5800.00
2019-05-17T11:55:39.814Z,6016.00
2019-05-17T11:56:39.825Z,6568.00
2019-05-17T11:57:39.797Z,6808.00
2019-05-17T11:58:39.784Z,6956.00
2019-05-17T11:59:39.764Z,7148.00
2019-05-17T12:00:39.754Z,7340.00
2019-05-17T12:01:39.772Z,7744.00
2019-05-17T12:02:39.734Z,8048.00
2019-05-17T12:03:39.713Z,8008.00
2019-05-17T12:04:39.748Z,6900.00
2019-05-17T12:05:40.108Z,5496.00
2019-05-17T12:06:39.859Z,4904.00
2019-05-17T12:07:39.995Z,4556.00
2019-05-17T12:08:40.043Z,4504.00
2019-05-17T12:09:39.766Z,4604.00
2019-05-17T12:10:39.804Z,4192.00
2019-05-17T12:11:39.806Z,3640.00
2019-05-17T12:12:40.077Z,3564.00
2019-05-17T12:13:43.226Z,3740.00
2019-05-17T12:14:39.595Z,4648.00
2019-05-17T12:15:45.044Z,5496.00
2019-05-17T12:16:40.585Z,6308.00
2019-05-17T12:17:39.574Z,6980.00
2019-05-17T12:18:39.573Z,8228.00
2019-05-17T12:19:39.557Z,9312.00
2019-05-17T12:20:39.542Z,9808.00
2019-05-17T12:21:39.526Z,9596.00
2019-05-17T12:22:39.549Z,10248.00
2019-05-17T12:23:39.513Z,11164.00